Time;durP1;ratioP1;P1;durP2;ratioP2;P2;SDS_P1;SDS_P2;PMS_P1;PMS_P2;Temp;Humidity;BMP_temperature;BMP_pressure;BME280_temperature;BME280_humidity;BME280_pressure;Samples;Min_cycle;Max_cycle;Signal;HPM_P1;HPM_P2
2023/03/14 00:01:17;;;;;;;24.83;4.82;;;9.50;99.90;;;;;;5001284;28;20079;-85
2023/03/14 00:03:43;;;;;;;22.55;4.82;;;9.50;99.90;;;;;;4996222;28;20049;-85
2023/03/14 00:06:10;;;;;;;25.92;4.47;;;9.50;99.90;;;;;;5000297;28;20413;-85
2023/03/14 00:08:36;;;;;;;25.88;5.28;;;9.50;99.90;;;;;;5000391;28;20037;-85
2023/03/14 00:11:08;;;;;;;28.00;5.70;;;9.60;99.90;;;;;;4999157;28;20117;-86
2023/03/14 00:13:33;;;;;;;20.27;5.00;;;9.70;99.90;;;;;;5017019;28;20030;-85
2023/03/14 00:16:08;;;;;;;20.38;5.03;;;9.70;99.90;;;;;;5042727;28;20037;-85
2023/03/14 00:18:34;;;;;;;21.55;5.90;;;9.70;99.90;;;;;;4997585;28;20033;-86
2023/03/14 00:21:01;;;;;;;24.38;4.63;;;9.90;99.90;;;;;;5012633;28;20119;-84
2023/03/14 00:23:32;;;;;;;23.70;5.10;;;10.00;99.90;;;;;;4999870;28;20037;-85
2023/03/14 00:26:27;;;;;;;19.67;4.65;;;10.10;99.90;;;;;;5000512;28;20052;-85
2023/03/14 00:28:53;;;;;;;20.88;5.40;;;10.20;99.90;;;;;;4980773;28;20526;-86
2023/03/14 00:31:19;;;;;;;22.92;5.38;;;10.20;99.90;;;;;;5000837;28;20368;-85
2023/03/14 00:33:45;;;;;;;18.92;4.80;;;10.20;99.90;;;;;;4998746;28;20107;-85
2023/03/14 00:36:16;;;;;;;23.13;5.32;;;10.20;99.90;;;;;;5041961;28;20050;-85
2023/03/14 00:38:43;;;;;;;19.05;5.18;;;10.20;99.90;;;;;;5014390;28;20123;-86
2023/03/14 00:41:15;;;;;;;20.73;4.55;;;10.20;99.90;;;;;;5013720;28;20177;-85
2023/03/14 00:43:42;;;;;;;19.88;4.80;;;10.20;99.90;;;;;;5010649;28;20037;-84
2023/03/14 00:46:08;;;;;;;15.93;4.15;;;10.30;99.90;;;;;;4998760;28;20501;-85
2023/03/14 00:48:34;;;;;;;20.48;4.53;;;10.30;99.90;;;;;;5028758;28;20040;-85
2023/03/14 00:51:01;;;;;;;19.25;4.32;;;10.40;99.90;;;;;;4999603;28;20416;-85
2023/03/14 00:53:26;;;;;;;20.50;5.32;;;10.50;99.90;;;;;;5014899;28;20056;-85
2023/03/14 00:55:53;;;;;;;20.48;4.57;;;10.50;99.90;;;;;;5013602;28;20469;-85
2023/03/14 00:58:18;;;;;;;19.73;5.00;;;10.50;99.90;;;;;;4997206;28;20091;-85
2023/03/14 01:00:45;;;;;;;20.08;4.47;;;10.60;99.90;;;;;;5003428;28;20045;-85
2023/03/14 01:03:12;;;;;;;15.27;4.28;;;10.60;99.90;;;;;;5036113;28;20188;-85
2023/03/14 01:05:38;;;;;;;17.55;3.90;;;10.60;99.90;;;;;;5015677;28;20400;-86
2023/03/14 01:08:05;;;;;;;16.38;4.20;;;10.50;99.90;;;;;;4999575;28;20346;-85
2023/03/14 01:10:31;;;;;;;21.27;4.85;;;10.60;99.90;;;;;;5017416;28;20040;-85
2023/03/14 01:12:56;;;;;;;19.40;4.68;;;10.40;99.90;;;;;;5015159;28;20485;-85
2023/03/14 01:15:22;;;;;;;16.98;4.18;;;10.50;99.90;;;;;;4999264;28;20060;-85
2023/03/14 01:17:48;;;;;;;19.02;4.45;;;10.50;99.90;;;;;;5019004;28;20537;-84
2023/03/14 01:20:15;;;;;;;17.15;4.38;;;10.60;99.90;;;;;;5023807;28;20061;-84
2023/03/14 01:22:42;;;;;;;21.02;4.78;;;10.60;99.90;;;;;;5004356;28;20450;-84
2023/03/14 01:25:10;;;;;;;20.33;4.30;;;10.60;99.90;;;;;;5002945;28;20124;-85
2023/03/14 01:27:36;;;;;;;21.98;5.47;;;10.60;99.90;;;;;;5016750;28;20041;-85
2023/03/14 01:30:03;;;;;;;21.95;4.43;;;10.70;99.90;;;;;;5006908;28;20025;-85
2023/03/14 01:32:29;;;;;;;15.63;4.32;;;10.70;99.90;;;;;;5034464;28;20045;-85
2023/03/14 01:34:55;;;;;;;20.00;4.50;;;10.70;99.90;;;;;;5001427;28;20116;-85
2023/03/14 01:37:21;;;;;;;20.85;4.68;;;10.60;99.90;;;;;;5022861;28;20134;-85
2023/03/14 01:39:49;;;;;;;11.05;3.75;;;10.70;99.90;;;;;;5015862;28;20068;-85
2023/03/14 01:42:15;;;;;;;14.90;4.28;;;10.70;99.90;;;;;;5043080;28;20494;-86
2023/03/14 01:44:51;;;;;;;14.25;3.60;;;10.70;99.90;;;;;;5019917;28;20041;-85
2023/03/14 01:47:17;;;;;;;16.75;3.72;;;10.80;99.90;;;;;;4999490;28;20103;-85
2023/03/14 01:49:46;;;;;;;11.15;3.63;;;10.70;99.90;;;;;;5001453;28;20033;-85
2023/03/14 01:52:27;;;;;;;20.40;3.80;;;10.70;99.90;;;;;;5001882;28;20029;-85
2023/03/14 01:54:57;;;;;;;15.68;3.33;;;10.70;99.90;;;;;;5017286;28;20068;-85
2023/03/14 01:57:31;;;;;;;15.88;3.60;;;10.60;99.90;;;;;;5001176;28;20037;-85
2023/03/14 02:00:13;;;;;;;13.10;3.70;;;10.60;99.90;;;;;;5013588;28;20041;-85
2023/03/14 02:02:43;;;;;;;12.18;3.40;;;10.60;99.90;;;;;;5044791;28;20123;-85
2023/03/14 02:05:09;;;;;;;15.85;3.95;;;10.60;99.90;;;;;;5003016;28;20088;-85
2023/03/14 02:07:43;;;;;;;14.30;3.33;;;10.60;99.90;;;;;;5002026;28;20073;-84
2023/03/14 02:10:10;;;;;;;14.40;3.28;;;10.60;99.90;;;;;;4998951;28;20441;-86
2023/03/14 02:12:37;;;;;;;12.55;3.20;;;10.60;99.90;;;;;;4997388;28;20040;-85
2023/03/14 02:15:03;;;;;;;12.18;3.53;;;10.60;99.90;;;;;;5000360;28;20518;-86
2023/03/14 02:17:30;;;;;;;11.50;2.85;;;10.60;99.90;;;;;;5002015;28;20324;-85
2023/03/14 02:20:07;;;;;;;13.77;3.58;;;10.60;99.90;;;;;;5015785;28;20183;-86
2023/03/14 02:22:34;;;;;;;12.05;3.50;;;10.40;99.90;;;;;;5002426;28;20527;-84
2023/03/14 02:25:06;;;;;;;8.45;3.05;;;10.40;99.90;;;;;;5002337;28;20037;-85
2023/03/14 02:27:33;;;;;;;12.32;3.20;;;10.40;99.90;;;;;;5035093;28;20068;-85
2023/03/14 02:30:03;;;;;;;12.52;3.35;;;10.50;99.90;;;;;;5042582;28;20034;-85
2023/03/14 02:32:32;;;;;;;11.15;2.90;;;10.40;99.90;;;;;;4999423;28;20044;-85
2023/03/14 02:35:01;;;;;;;11.20;2.70;;;10.30;99.90;;;;;;5017787;28;20678;-85
2023/03/14 02:37:38;;;;;;;15.07;3.25;;;10.30;99.90;;;;;;5000867;28;20045;-86
2023/03/14 02:40:04;;;;;;;14.52;3.20;;;10.30;99.90;;;;;;5029814;28;20072;-86
2023/03/14 02:42:30;;;;;;;7.85;2.92;;;10.40;99.90;;;;;;5002222;28;20047;-85
2023/03/14 02:45:08;;;;;;;11.43;3.33;;;10.30;99.90;;;;;;5044786;28;20363;-85
2023/03/14 02:47:37;;;;;;;12.13;3.45;;;10.30;99.90;;;;;;4997951;28;20041;-85
2023/03/14 02:50:07;;;;;;;9.43;2.50;;;10.30;99.90;;;;;;5002111;28;20100;-85
2023/03/14 02:52:33;;;;;;;13.38;3.03;;;10.30;99.90;;;;;;5015894;28;20459;-85
2023/03/14 02:54:59;;;;;;;9.05;2.40;;;10.30;99.90;;;;;;5016475;28;20059;-85
2023/03/14 02:57:24;;;;;;;11.70;2.72;;;10.30;99.90;;;;;;5027311;28;20511;-85
2023/03/14 02:59:50;;;;;;;9.85;2.70;;;10.30;99.90;;;;;;5003899;28;20041;-86
2023/03/14 03:02:19;;;;;;;9.30;2.67;;;10.30;99.90;;;;;;4999257;28;20042;-85
2023/03/14 03:04:45;;;;;;;9.10;2.80;;;10.30;99.90;;;;;;5018741;28;20061;-85
2023/03/14 03:07:10;;;;;;;11.05;2.80;;;10.30;99.90;;;;;;5000306;28;20034;-85
2023/03/14 03:09:36;;;;;;;12.23;2.63;;;10.30;99.90;;;;;;5042945;28;20054;-85
2023/03/14 03:12:01;;;;;;;9.27;3.20;;;10.20;99.90;;;;;;5045688;28;20505;-86
2023/03/14 03:14:27;;;;;;;8.60;3.08;;;10.20;99.90;;;;;;5013797;28;20120;-86
2023/03/14 03:16:53;;;;;;;9.30;2.75;;;10.20;99.90;;;;;;4999461;28;20049;-84
2023/03/14 03:19:19;;;;;;;11.18;3.30;;;10.00;99.90;;;;;;5012574;28;20041;-86
2023/03/14 03:21:48;;;;;;;13.07;2.97;;;10.00;99.90;;;;;;5017304;28;20138;-85
2023/03/14 03:24:13;;;;;;;10.38;3.60;;;9.90;99.90;;;;;;5018101;28;20056;-85
2023/03/14 03:26:39;;;;;;;9.32;2.95;;;9.90;99.90;;;;;;5003482;28;20033;-85
2023/03/14 03:29:05;;;;;;;13.02;3.10;;;9.90;99.90;;;;;;5004732;28;20032;-86
2023/03/14 03:31:30;;;;;;;12.05;3.55;;;9.80;99.90;;;;;;5026170;28;20419;-85
2023/03/14 03:33:57;;;;;;;15.02;4.28;;;9.80;99.90;;;;;;5013461;28;20049;-85
2023/03/14 03:36:24;;;;;;;16.08;4.78;;;9.80;99.90;;;;;;5001977;28;20139;-85
2023/03/14 03:38:50;;;;;;;15.80;4.90;;;9.80;99.90;;;;;;5015977;28;20063;-85
2023/03/14 03:41:16;;;;;;;21.17;5.20;;;9.80;99.90;;;;;;5015869;28;20091;-85
2023/03/14 03:43:42;;;;;;;12.55;5.20;;;9.70;99.90;;;;;;5031075;28;20033;-85
2023/03/14 03:46:08;;;;;;;17.25;6.20;;;9.70;99.90;;;;;;5000343;28;20061;-85
2023/03/14 03:48:34;;;;;;;17.70;5.75;;;9.70;99.90;;;;;;5001595;28;20099;-85
2023/03/14 03:51:00;;;;;;;17.45;5.28;;;9.70;99.90;;;;;;5016980;28;20057;-85
2023/03/14 03:53:26;;;;;;;14.88;5.38;;;9.70;99.90;;;;;;5000150;28;20506;-85
2023/03/14 03:55:55;;;;;;;16.65;5.78;;;9.70;99.90;;;;;;5002165;28;20041;-85
2023/03/14 03:58:20;;;;;;;17.40;5.53;;;9.70;99.90;;;;;;5013039;28;20037;-85
2023/03/14 04:00:46;;;;;;;16.25;5.32;;;9.70;99.90;;;;;;5015364;28;20041;-84
2023/03/14 04:03:12;;;;;;;16.00;5.70;;;9.80;99.90;;;;;;5009821;28;20051;-85
2023/03/14 04:05:37;;;;;;;14.52;5.43;;;9.80;99.90;;;;;;5016503;28;20396;-85
2023/03/14 04:08:04;;;;;;;18.63;5.60;;;9.80;99.90;;;;;;5001612;28;20038;-85
2023/03/14 04:10:29;;;;;;;16.80;5.53;;;9.70;99.90;;;;;;5031863;28;20037;-85
2023/03/14 04:12:55;;;;;;;14.95;6.07;;;9.70;99.90;;;;;;5012564;28;20042;-85
2023/03/14 04:15:21;;;;;;;14.18;6.13;;;9.70;99.90;;;;;;5026555;28;20128;-85
2023/03/14 04:17:47;;;;;;;14.90;6.82;;;9.70;99.90;;;;;;4996589;28;20040;-85
2023/03/14 04:20:12;;;;;;;16.73;6.10;;;9.60;99.90;;;;;;4999790;28;20045;-85
2023/03/14 04:22:39;;;;;;;17.40;6.65;;;9.80;99.90;;;;;;5002059;28;20132;-85
2023/03/14 04:25:05;;;;;;;15.13;5.60;;;9.80;99.90;;;;;;5015562;28;20077;-86
2023/03/14 04:27:31;;;;;;;14.32;6.40;;;9.70;99.90;;;;;;5000276;28;20056;-85
2023/03/14 04:29:57;;;;;;;13.02;5.95;;;9.70;99.90;;;;;;5015555;28;20034;-85
2023/03/14 04:32:22;;;;;;;15.13;7.20;;;9.70;99.90;;;;;;5022770;28;20052;-85
2023/03/14 04:34:48;;;;;;;12.13;6.40;;;9.70;99.90;;;;;;4998960;28;20057;-85
2023/03/14 04:37:14;;;;;;;15.98;6.57;;;9.60;99.90;;;;;;5039807;28;20124;-85
2023/03/14 04:39:41;;;;;;;15.07;7.47;;;9.70;99.90;;;;;;5014240;28;20113;-84
2023/03/14 04:42:06;;;;;;;14.75;6.85;;;9.70;99.90;;;;;;5011793;28;20525;-83
2023/03/14 04:44:32;;;;;;;17.80;6.55;;;9.70;99.90;;;;;;4998048;28;20041;-84
2023/03/14 04:46:58;;;;;;;18.30;6.72;;;9.70;99.90;;;;;;5014475;28;20091;-85
2023/03/14 04:49:24;;;;;;;20.85;7.15;;;9.70;99.90;;;;;;5018401;28;20519;-85
2023/03/14 04:51:55;;;;;;;19.25;6.32;;;9.70;99.90;;;;;;5011971;28;20037;-85
2023/03/14 04:54:21;;;;;;;17.17;6.07;;;9.70;99.90;;;;;;5011498;28;20041;-85
2023/03/14 04:56:47;;;;;;;15.50;6.07;;;9.70;99.90;;;;;;4994950;28;20056;-85
2023/03/14 04:59:12;;;;;;;17.42;6.35;;;9.70;99.90;;;;;;5001533;28;20195;-85
2023/03/14 05:01:38;;;;;;;10.27;5.78;;;9.70;99.90;;;;;;4996751;28;20605;-85
2023/03/14 05:04:04;;;;;;;13.60;5.68;;;9.70;99.90;;;;;;5009872;28;20033;-85
2023/03/14 05:06:29;;;;;;;12.45;5.65;;;9.70;99.90;;;;;;4999490;28;20041;-85
2023/03/14 05:08:55;;;;;;;15.75;6.45;;;9.70;99.90;;;;;;4999272;28;20363;-85
2023/03/14 05:11:23;;;;;;;11.73;5.72;;;9.70;99.90;;;;;;4998552;28;20167;-86
2023/03/14 05:13:49;;;;;;;13.20;5.30;;;9.70;99.90;;;;;;4993155;28;20053;-84
2023/03/14 05:16:15;;;;;;;16.30;6.30;;;9.70;99.90;;;;;;5016271;28;20041;-85
2023/03/14 05:18:40;;;;;;;12.57;6.60;;;9.70;99.90;;;;;;5011013;28;20052;-85
2023/03/14 05:21:06;;;;;;;18.30;6.78;;;9.70;99.90;;;;;;5031240;28;20351;-86
2023/03/14 05:23:32;;;;;;;16.80;6.70;;;9.70;99.90;;;;;;5000786;28;20061;-84
2023/03/14 05:25:57;;;;;;;15.55;6.85;;;9.70;99.90;;;;;;5027191;28;20965;-84
2023/03/14 05:28:23;;;;;;;15.75;6.63;;;9.70;99.90;;;;;;5001532;28;20422;-85
2023/03/14 05:30:49;;;;;;;19.00;6.47;;;9.70;99.90;;;;;;5013837;28;20120;-84
2023/03/14 05:33:14;;;;;;;14.50;6.20;;;9.70;99.90;;;;;;5026311;28;20095;-85
2023/03/14 05:35:41;;;;;;;15.10;6.60;;;9.60;99.90;;;;;;4998933;28;20175;-84
2023/03/14 05:38:07;;;;;;;13.40;6.03;;;9.60;99.90;;;;;;4997626;28;20538;-84
2023/03/14 05:40:33;;;;;;;20.00;7.18;;;9.70;99.90;;;;;;5014304;28;20111;-86
2023/03/14 05:42:59;;;;;;;18.95;7.20;;;9.70;99.90;;;;;;4998606;28;20040;-85
2023/03/14 05:45:25;;;;;;;16.25;6.57;;;9.60;99.90;;;;;;4998996;28;20103;-85
2023/03/14 05:47:50;;;;;;;15.00;6.93;;;9.70;99.90;;;;;;4998734;28;20045;-84
2023/03/14 05:50:19;;;;;;;22.33;6.75;;;9.60;99.90;;;;;;5013006;28;20622;-85
2023/03/14 05:52:47;;;;;;;15.18;6.72;;;9.70;99.90;;;;;;5014932;28;20470;-84
2023/03/14 05:55:13;;;;;;;17.02;5.90;;;9.70;99.90;;;;;;4998676;28;20096;-85
2023/03/14 05:57:38;;;;;;;14.52;7.05;;;9.70;99.90;;;;;;4999543;28;20122;-84
2023/03/14 06:00:05;;;;;;;12.95;6.55;;;9.70;99.90;;;;;;4999062;28;20507;-84
2023/03/14 06:02:30;;;;;;;18.08;6.15;;;9.70;99.90;;;;;;5013856;28;20108;-84
2023/03/14 06:04:56;;;;;;;11.93;6.00;;;9.70;99.90;;;;;;5028876;28;20045;-85
2023/03/14 06:07:22;;;;;;;14.30;6.13;;;9.70;99.90;;;;;;4997454;28;20038;-85
2023/03/14 06:09:48;;;;;;;12.70;6.53;;;9.70;99.90;;;;;;5015796;28;20166;-84
2023/03/14 06:12:13;;;;;;;12.07;5.97;;;9.70;99.90;;;;;;5024197;28;20173;-85
2023/03/14 06:14:39;;;;;;;9.20;5.50;;;9.80;99.90;;;;;;5002868;28;20038;-85
2023/03/14 06:17:05;;;;;;;10.88;5.35;;;9.70;99.90;;;;;;5016075;28;20830;-84
2023/03/14 06:19:30;;;;;;;15.32;5.47;;;9.70;99.90;;;;;;5003088;28;20371;-84
2023/03/14 06:21:56;;;;;;;10.75;6.28;;;9.70;99.90;;;;;;5003699;28;20174;-84
2023/03/14 06:24:21;;;;;;;11.85;4.70;;;9.70;99.90;;;;;;5019917;28;20041;-84
2023/03/14 06:26:47;;;;;;;8.65;4.20;;;9.70;99.90;;;;;;5000165;28;20412;-84
2023/03/14 06:29:16;;;;;;;9.02;4.40;;;9.80;99.90;;;;;;4998257;28;20057;-84
2023/03/14 06:31:41;;;;;;;11.57;5.03;;;9.80;99.90;;;;;;5004375;28;20071;-84
2023/03/14 06:34:07;;;;;;;9.60;4.78;;;9.80;99.90;;;;;;5000483;28;20041;-85
2023/03/14 06:36:33;;;;;;;12.05;4.80;;;9.80;99.90;;;;;;5003154;28;20147;-85
2023/03/14 06:38:59;;;;;;;10.85;4.32;;;9.70;99.90;;;;;;5026812;28;20050;-84
2023/03/14 06:41:26;;;;;;;11.38;5.10;;;9.80;99.90;;;;;;5000703;28;20393;-85
2023/03/14 06:43:55;;;;;;;8.70;4.72;;;9.80;99.90;;;;;;5006320;28;20406;-84
2023/03/14 06:46:21;;;;;;;7.07;4.03;;;9.70;99.90;;;;;;5015471;28;20037;-85
2023/03/14 06:48:46;;;;;;;7.25;2.03;;;9.70;99.90;;;;;;5000445;28;20029;-82
2023/03/14 06:51:12;;;;;;;7.30;1.20;;;8.70;99.90;;;;;;5002976;28;20039;-83
2023/03/14 06:53:38;;;;;;;3.28;0.95;;;8.10;99.90;;;;;;5000317;28;20317;-83
2023/03/14 06:56:04;;;;;;;7.05;1.30;;;8.00;99.90;;;;;;5000691;28;20041;-83
2023/03/14 06:58:29;;;;;;;8.43;1.75;;;7.90;99.90;;;;;;5001881;28;20041;-83
2023/03/14 07:00:56;;;;;;;5.65;1.27;;;7.80;99.90;;;;;;5015396;28;20037;-83
2023/03/14 07:03:22;;;;;;;16.40;1.85;;;7.70;99.90;;;;;;5016816;28;20030;-83
2023/03/14 07:05:48;;;;;;;8.55;1.70;;;7.60;99.90;;;;;;5005503;28;20052;-82
2023/03/14 07:08:13;;;;;;;15.25;2.35;;;7.20;99.90;;;;;;5005683;28;20069;-82
2023/03/14 07:10:39;;;;;;;11.25;1.67;;;6.80;99.90;;;;;;5001875;28;20130;-82
2023/03/14 07:13:05;;;;;;;11.63;2.13;;;7.10;99.90;;;;;;4999324;28;20498;-82
2023/03/14 07:15:30;;;;;;;12.85;2.40;;;7.40;99.90;;;;;;5017678;28;20117;-82
2023/03/14 07:17:56;;;;;;;19.92;3.70;;;7.10;99.90;;;;;;4995418;28;20048;-83
2023/03/14 07:20:23;;;;;;;9.32;2.10;;;7.00;99.90;;;;;;4999459;28;20426;-83
2023/03/14 07:22:49;;;;;;;9.35;2.10;;;6.80;99.90;;;;;;5018702;28;20166;-82
2023/03/14 07:25:15;;;;;;;14.20;2.25;;;6.70;99.90;;;;;;5013095;28;20050;-82
2023/03/14 07:27:44;;;;;;;7.15;1.85;;;6.60;99.90;;;;;;5002503;28;20441;-82
2023/03/14 07:30:11;;;;;;;8.77;1.65;;;6.50;99.90;;;;;;5016066;28;20033;-82
2023/03/14 07:32:36;;;;;;;6.90;1.60;;;6.40;99.90;;;;;;5015008;28;20099;-82
2023/03/14 07:35:02;;;;;;;8.93;1.60;;;6.30;99.90;;;;;;5016137;28;20053;-83
2023/03/14 07:37:31;;;;;;;9.45;1.58;;;6.00;99.90;;;;;;5017943;28;20056;-82
2023/03/14 07:39:57;;;;;;;6.80;1.20;;;5.90;99.90;;;;;;5028688;28;20037;-83
2023/03/14 07:42:22;;;;;;;6.72;1.13;;;5.50;99.90;;;;;;5016464;28;20514;-82
2023/03/14 07:44:48;;;;;;;1.63;0.70;;;5.30;99.90;;;;;;5014716;28;20080;-83
2023/03/14 07:47:16;;;;;;;5.15;1.15;;;5.30;99.90;;;;;;5021967;28;20466;-82
2023/03/14 07:49:42;;;;;;;3.20;0.65;;;5.30;99.90;;;;;;5001525;28;20485;-82
2023/03/14 07:52:08;;;;;;;2.60;0.70;;;5.10;99.90;;;;;;5015637;28;20037;-82
2023/03/14 07:54:34;;;;;;;6.75;0.90;;;5.00;99.90;;;;;;5000126;28;20537;-83
2023/03/14 07:57:00;;;;;;;3.85;0.90;;;4.90;99.90;;;;;;5014871;28;20107;-83
2023/03/14 07:59:27;;;;;;;4.45;1.00;;;4.90;99.90;;;;;;5016234;28;20037;-82
2023/03/14 08:01:53;;;;;;;1.48;0.90;;;4.90;99.90;;;;;;5013555;28;20057;-83
2023/03/14 08:04:18;;;;;;;4.05;1.00;;;4.90;99.90;;;;;;5043397;28;20406;-82
2023/03/14 08:06:44;;;;;;;3.22;0.63;;;4.90;99.90;;;;;;5015969;28;20072;-82
2023/03/14 08:09:10;;;;;;;5.65;0.70;;;4.90;99.90;;;;;;5001104;28;20034;-82
2023/03/14 08:11:36;;;;;;;5.53;1.00;;;4.80;99.90;;;;;;5016369;28;20034;-83
2023/03/14 08:14:01;;;;;;;5.18;0.75;;;4.80;99.90;;;;;;5000514;28;20037;-82
2023/03/14 08:16:27;;;;;;;5.97;1.05;;;4.80;99.90;;;;;;5023823;28;21995;-83
2023/03/14 08:18:53;;;;;;;5.63;1.20;;;4.90;99.90;;;;;;5038500;28;20128;-83
2023/03/14 08:21:19;;;;;;;3.75;1.25;;;4.90;99.90;;;;;;4998507;28;20037;-82
2023/03/14 08:23:44;;;;;;;3.65;1.15;;;5.00;99.90;;;;;;4999028;28;20041;-83
2023/03/14 08:26:10;;;;;;;6.10;1.30;;;5.10;99.90;;;;;;5011699;28;20056;-82
2023/03/14 08:28:36;;;;;;;3.08;0.75;;;5.00;99.90;;;;;;4998985;28;20050;-83
2023/03/14 08:31:02;;;;;;;4.75;0.75;;;5.10;99.90;;;;;;4998622;28;20467;-83
2023/03/14 08:33:31;;;;;;;4.05;0.90;;;5.10;99.90;;;;;;5035303;28;20041;-83
2023/03/14 08:35:59;;;;;;;5.00;0.77;;;5.30;99.90;;;;;;5000457;28;20053;-83
2023/03/14 08:38:25;;;;;;;7.45;1.02;;;5.30;99.90;;;;;;5011348;28;20124;-82
2023/03/14 08:40:58;;;;;;;7.03;1.30;;;5.30;99.90;;;;;;5001048;28;20049;-82
2023/03/14 08:43:24;;;;;;;4.82;1.38;;;5.40;99.90;;;;;;4998059;28;20081;-82
2023/03/14 08:45:50;;;;;;;6.00;1.20;;;5.30;99.90;;;;;;5001425;28;20081;-82
2023/03/14 08:48:15;;;;;;;9.07;1.63;;;5.40;99.90;;;;;;4998688;28;20783;-83
2023/03/14 08:50:41;;;;;;;9.05;1.98;;;5.50;99.90;;;;;;5015952;28;20171;-82
2023/03/14 08:53:07;;;;;;;7.15;2.25;;;5.40;99.90;;;;;;5001045;28;20200;-82
2023/03/14 08:55:32;;;;;;;8.88;2.42;;;5.50;99.90;;;;;;5016320;28;20039;-82
2023/03/14 08:57:58;;;;;;;8.63;1.45;;;5.60;99.90;;;;;;5000740;28;20452;-83
2023/03/14 09:00:23;;;;;;;6.10;1.30;;;5.70;99.90;;;;;;5000050;28;20106;-82
2023/03/14 09:02:49;;;;;;;11.27;2.00;;;5.60;99.90;;;;;;5000922;28;20533;-83
2023/03/14 09:05:15;;;;;;;9.90;2.33;;;5.70;99.90;;;;;;4996916;28;20056;-83
2023/03/14 09:07:41;;;;;;;13.18;2.25;;;5.70;99.90;;;;;;5017816;28;20049;-82
2023/03/14 09:10:08;;;;;;;10.90;2.28;;;5.80;99.90;;;;;;4999718;28;20037;-82
2023/03/14 09:12:34;;;;;;;17.90;2.55;;;5.90;99.90;;;;;;4999305;28;20225;-83
2023/03/14 09:15:00;;;;;;;14.20;2.65;;;5.90;99.90;;;;;;5000217;28;20257;-83
2023/03/14 09:17:25;;;;;;;18.88;2.78;;;6.10;99.90;;;;;;5029600;28;20041;-83
2023/03/14 09:19:51;;;;;;;11.57;2.08;;;6.00;99.90;;;;;;5017527;28;20034;-83
2023/03/14 09:22:17;;;;;;;13.23;2.88;;;6.20;99.90;;;;;;5014668;28;20159;-83
2023/03/14 09:24:42;;;;;;;16.88;3.10;;;6.20;99.90;;;;;;5013228;28;20040;-83
2023/03/14 09:27:08;;;;;;;18.23;3.67;;;6.20;99.90;;;;;;5012349;28;20173;-83
2023/03/14 09:29:34;;;;;;;18.42;3.30;;;6.10;99.90;;;;;;5018515;28;20026;-84
2023/03/14 09:32:00;;;;;;;18.60;3.25;;;6.30;99.90;;;;;;4999022;28;20106;-83
2023/03/14 09:34:26;;;;;;;22.45;3.78;;;6.30;99.90;;;;;;4996651;28;20145;-83
2023/03/14 09:36:52;;;;;;;17.67;3.63;;;6.30;99.90;;;;;;5001461;28;20119;-83
2023/03/14 09:39:18;;;;;;;22.58;3.70;;;6.20;99.90;;;;;;5018255;28;20053;-82
2023/03/14 09:41:49;;;;;;;19.70;3.15;;;6.20;99.90;;;;;;5005042;28;20041;-84
2023/03/14 09:44:26;;;;;;;18.73;3.30;;;6.20;99.90;;;;;;5004278;28;20459;-83
2023/03/14 09:46:57;;;;;;;22.75;3.63;;;6.20;99.90;;;;;;5043543;28;20045;-83
2023/03/14 09:49:34;;;;;;;25.25;4.13;;;6.30;99.90;;;;;;5005531;28;20509;-82
2023/03/14 09:52:04;;;;;;;17.77;3.22;;;6.20;99.90;;;;;;5002689;28;20208;-83
2023/03/14 09:54:38;;;;;;;15.27;3.55;;;6.10;99.90;;;;;;5005262;28;20471;-84
2023/03/14 09:57:13;;;;;;;20.92;3.08;;;6.20;99.90;;;;;;5024951;28;20517;-83
2023/03/14 09:59:40;;;;;;;20.75;4.88;;;6.40;99.90;;;;;;5039782;28;20061;-84
2023/03/14 10:02:21;;;;;;;16.60;3.10;;;6.50;99.90;;;;;;4999894;28;20041;-84
2023/03/14 10:04:49;;;;;;;19.30;3.78;;;6.70;99.90;;;;;;5000631;28;20045;-84
2023/03/14 10:07:22;;;;;;;15.75;3.25;;;6.50;99.90;;;;;;5002024;28;20343;-84
2023/03/14 10:09:50;;;;;;;18.80;3.40;;;6.50;99.90;;;;;;5016816;28;20041;-83
2023/03/14 10:12:18;;;;;;;14.38;2.55;;;6.50;99.90;;;;;;5021725;28;20443;-83
2023/03/14 10:14:53;;;;;;;27.95;3.53;;;6.50;99.90;;;;;;4999920;28;20106;-83
2023/03/14 10:17:20;;;;;;;20.08;4.40;;;6.40;99.90;;;;;;5014934;28;20045;-83
2023/03/14 10:19:59;;;;;;;19.60;3.90;;;6.20;99.90;;;;;;5015259;28;20046;-83
2023/03/14 10:22:29;;;;;;;19.20;3.90;;;6.20;99.90;;;;;;4999880;28;20053;-84
2023/03/14 10:25:00;;;;;;;20.00;3.92;;;6.30;99.90;;;;;;5033609;28;20044;-84
2023/03/14 10:27:35;;;;;;;22.25;3.88;;;6.40;99.90;;;;;;5001923;28;20757;-83
2023/03/14 10:30:07;;;;;;;15.05;3.25;;;6.30;99.90;;;;;;5000600;28;20244;-83
2023/03/14 10:32:34;;;;;;;20.30;3.33;;;6.40;99.90;;;;;;4996882;28;20818;-83
2023/03/14 10:35:18;;;;;;;18.73;3.15;;;6.60;99.90;;;;;;5041656;28;20132;-83
2023/03/14 10:37:57;;;;;;;13.85;2.72;;;6.60;99.90;;;;;;5002268;28;20091;-84
2023/03/14 10:40:38;;;;;;;15.70;3.30;;;6.60;99.90;;;;;;5045326;28;20073;-83
2023/03/14 10:43:06;;;;;;;18.83;3.60;;;6.60;99.90;;;;;;5003949;28;20469;-84
2023/03/14 10:45:44;;;;;;;18.80;3.55;;;6.70;99.90;;;;;;5017873;28;20045;-83
2023/03/14 10:48:32;;;;;;;12.10;2.97;;;6.80;99.90;;;;;;5000248;28;20459;-84
2023/03/14 10:51:07;;;;;;;13.73;2.88;;;6.60;99.90;;;;;;5016805;28;20118;-83
2023/03/14 10:53:55;;;;;;;11.75;2.80;;;6.50;99.90;;;;;;5001060;28;20045;-84
2023/03/14 10:56:23;;;;;;;13.15;2.97;;;6.70;99.90;;;;;;5001726;28;20216;-83
2023/03/14 10:58:58;;;;;;;15.48;3.00;;;6.60;99.90;;;;;;5045445;28;20049;-84
2023/03/14 11:01:34;;;;;;;17.55;3.00;;;6.60;99.90;;;;;;5002005;28;20049;-84
2023/03/14 11:04:22;;;;;;;12.45;2.83;;;6.80;99.90;;;;;;5001023;28;20041;-83
2023/03/14 11:06:59;;;;;;;14.90;2.42;;;6.90;99.90;;;;;;4997442;28;20037;-84
2023/03/14 11:09:50;;;;;;;11.57;2.25;;;6.40;99.90;;;;;;5024816;28;20854;-83
2023/03/14 11:12:18;;;;;;;11.43;2.38;;;6.30;99.90;;;;;;5018305;28;20025;-83
2023/03/14 11:14:52;;;;;;;10.75;2.40;;;6.30;99.90;;;;;;5001784;28;20388;-84
2023/03/14 11:17:38;;;;;;;9.20;1.60;;;6.90;99.90;;;;;;4999762;28;20602;-84
2023/03/14 11:20:33;;;;;;;10.10;1.80;;;7.00;99.90;;;;;;5018812;28;20034;-83
2023/03/14 11:23:08;;;;;;;11.10;2.08;;;6.70;99.90;;;;;;5000186;28;20394;-84
2023/03/14 11:25:56;;;;;;;9.52;2.30;;;6.60;99.90;;;;;;4998630;28;20326;-83
2023/03/14 11:28:33;;;;;;;8.68;1.83;;;6.80;99.90;;;;;;5001045;28;20089;-84
2023/03/14 11:31:28;;;;;;;7.28;2.25;;;6.70;99.90;;;;;;4999416;28;20501;-83
2023/03/14 11:34:13;;;;;;;;;;;6.60;99.90;;;;;;4995942;28;20037;-83
2023/03/14 11:36:41;;;;;;;8.27;1.95;;;6.50;99.90;;;;;;5029506;28;20131;-83
2023/03/14 11:39:16;;;;;;;12.40;2.10;;;6.40;99.90;;;;;;4999998;28;20536;-83
2023/03/14 11:41:46;;;;;;;9.68;2.13;;;6.40;99.90;;;;;;5020263;28;20128;-83
2023/03/14 11:44:22;;;;;;;9.88;2.05;;;6.60;99.90;;;;;;4999658;28;20038;-83
2023/03/14 11:46:53;;;;;;;7.65;1.90;;;7.20;99.90;;;;;;4998183;28;20053;-83
2023/03/14 11:49:38;;;;;;;6.35;1.98;;;7.70;99.90;;;;;;4998787;28;20045;-84
2023/03/14 11:52:37;;;;;;;8.57;1.63;;;7.30;99.90;;;;;;5020072;28;20040;-83
2023/03/14 11:55:27;;;;;;;6.72;1.70;;;6.90;99.90;;;;;;5040068;28;20077;-83
2023/03/14 11:58:01;;;;;;;5.75;1.75;;;7.10;99.90;;;;;;5016795;28;20132;-83
2023/03/14 12:00:27;;;;;;;7.25;1.73;;;7.00;99.90;;;;;;5012181;28;20033;-83
2023/03/14 12:03:19;;;;;;;8.70;1.92;;;7.00;99.90;;;;;;4997699;28;20044;-82
2023/03/14 12:05:59;;;;;;;7.20;1.70;;;7.30;99.90;;;;;;5013267;28;20283;-83
2023/03/14 12:08:46;;;;;;;11.15;1.80;;;6.90;99.90;;;;;;4999146;28;20056;-83
2023/03/14 12:11:33;;;;;;;6.43;1.42;;;7.70;99.90;;;;;;5028521;28;20505;-83
2023/03/14 12:14:00;;;;;;;7.55;2.05;;;7.40;99.90;;;;;;5029005;28;20520;-83
2023/03/14 12:16:34;;;;;;;6.82;1.85;;;7.60;99.90;;;;;;5026844;28;20029;-82
2023/03/14 12:19:28;;;;;;;9.82;1.67;;;7.80;99.90;;;;;;5018190;28;20092;-83
2023/03/14 12:22:17;;;;;;;3.10;0.90;;;7.00;99.90;;;;;;4992632;28;20435;-83
2023/03/14 12:24:49;;;;;;;6.53;1.52;;;6.80;99.90;;;;;;5007189;28;20056;-83
2023/03/14 12:27:41;;;;;;;6.43;1.40;;;7.20;99.90;;;;;;5015466;28;20063;-83
2023/03/14 12:30:25;;;;;;;7.35;1.60;;;7.60;99.90;;;;;;5023754;28;20044;-83
2023/03/14 12:33:09;;;;;;;8.80;1.80;;;7.20;99.90;;;;;;4997794;28;20087;-83
2023/03/14 12:35:42;;;;;;;6.78;1.67;;;7.10;99.90;;;;;;5019139;28;20057;-83
2023/03/14 12:38:35;;;;;;;14.70;1.95;;;7.10;99.90;;;;;;5026353;28;20045;-83
2023/03/14 12:41:40;;;;;;;6.72;1.40;;;6.90;99.90;;;;;;5000289;28;20490;-83
2023/03/14 12:44:30;;;;;;;6.18;1.30;;;7.20;99.90;;;;;;5016501;28;20143;-83
2023/03/14 12:47:20;;;;;;;6.07;1.70;;;7.70;99.90;;;;;;5019286;28;20053;-83
2023/03/14 12:49:57;;;;;;;4.47;1.20;;;8.20;99.90;;;;;;4997641;28;20522;-83
2023/03/14 12:52:41;;;;;;;4.68;1.55;;;7.70;99.90;;;;;;4999755;28;20042;-83
2023/03/14 12:55:21;;;;;;;10.13;1.75;;;7.80;99.90;;;;;;5013069;28;20056;-83
2023/03/14 12:58:10;;;;;;;9.35;2.10;;;7.20;99.90;;;;;;5016592;28;20056;-83
2023/03/14 13:00:40;;;;;;;14.05;2.53;;;7.00;99.90;;;;;;5026277;28;20073;-83